createdAt,value
2019-02-08T00:01:26.577Z,3.53
2019-02-08T00:03:56.189Z,3.40
2019-02-08T00:06:25.444Z,3.10
2019-02-08T00:08:55.617Z,3.60
2019-02-08T00:11:25.252Z,4.50
2019-02-08T00:13:54.930Z,3.50
2019-02-08T00:16:24.683Z,3.50
2019-02-08T00:18:53.897Z,4.67
2019-02-08T00:21:23.306Z,3.43
2019-02-08T00:23:52.570Z,3.43
2019-02-08T00:26:22.313Z,4.33
2019-02-08T00:28:52.526Z,3.67
2019-02-08T00:31:21.965Z,4.33
2019-02-08T00:33:51.187Z,3.77
2019-02-08T00:36:20.455Z,4.47
2019-02-08T00:38:49.803Z,3.17
2019-02-08T00:41:19.050Z,3.80
2019-02-08T00:43:48.311Z,3.40
2019-02-08T00:46:17.612Z,4.33
2019-02-08T00:48:47.038Z,3.20
2019-02-08T00:51:16.328Z,2.93
2019-02-08T00:53:45.624Z,4.20
2019-02-08T00:56:15.350Z,4.53
2019-02-08T00:58:44.769Z,3.63
2019-02-08T01:01:14.223Z,2.80
2019-02-08T01:03:43.946Z,4.13
2019-02-08T01:06:14.595Z,3.10
2019-02-08T01:08:44.427Z,3.57
2019-02-08T01:11:13.751Z,3.83
2019-02-08T01:13:45.126Z,4.70
2019-02-08T01:16:14.519Z,4.03
2019-02-08T01:18:44.319Z,4.70
2019-02-08T01:21:13.435Z,4.50
2019-02-08T01:23:43.099Z,5.40
2019-02-08T01:26:15.277Z,5.70
2019-02-08T01:28:44.589Z,4.23
2019-02-08T01:31:13.993Z,6.07
2019-02-08T01:33:43.361Z,4.87
2019-02-08T01:36:12.731Z,3.67
2019-02-08T01:38:42.269Z,4.27
2019-02-08T01:41:11.670Z,5.10
2019-02-08T01:43:41.090Z,3.70
2019-02-08T01:46:10.451Z,4.60
2019-02-08T01:48:39.874Z,5.40
2019-02-08T01:51:09.179Z,5.30
2019-02-08T01:53:38.686Z,5.00
2019-02-08T01:56:08.196Z,4.70
2019-02-08T01:58:37.986Z,5.33
2019-02-08T02:01:07.662Z,4.90
2019-02-08T02:03:36.856Z,4.00
2019-02-08T02:06:06.606Z,4.77
2019-02-08T02:08:35.951Z,5.37
2019-02-08T02:11:06.011Z,5.27
2019-02-08T02:13:35.406Z,4.60
2019-02-08T02:16:05.246Z,4.00
2019-02-08T02:18:34.468Z,5.00
2019-02-08T02:21:03.846Z,4.97
2019-02-08T02:23:33.323Z,5.00
2019-02-08T02:26:02.802Z,4.80
2019-02-08T02:28:33.702Z,5.20
2019-02-08T02:31:03.277Z,3.90
2019-02-08T02:33:32.641Z,3.53
2019-02-08T02:36:02.487Z,3.97
2019-02-08T02:38:31.824Z,4.07
2019-02-08T02:41:01.481Z,4.80
2019-02-08T02:43:32.524Z,4.40
2019-02-08T02:46:01.755Z,4.87
2019-02-08T02:48:30.986Z,3.27
2019-02-08T02:51:00.720Z,3.00
2019-02-08T02:53:30.050Z,4.07
2019-02-08T02:55:59.361Z,4.83
2019-02-08T02:58:28.652Z,4.33
2019-02-08T03:00:57.951Z,4.40
2019-02-08T03:03:27.627Z,4.97
2019-02-08T03:05:56.876Z,4.97
2019-02-08T03:08:26.453Z,4.57
2019-02-08T03:10:56.434Z,5.33
2019-02-08T03:13:25.894Z,5.80
2019-02-08T03:15:55.274Z,6.50
2019-02-08T03:18:24.576Z,5.33
2019-02-08T03:20:54.904Z,5.50
2019-02-08T03:23:24.321Z,6.20
2019-02-08T03:25:54.070Z,6.93
2019-02-08T03:28:24.302Z,6.67
2019-02-08T03:30:56.457Z,7.40
2019-02-08T03:33:26.472Z,6.27
2019-02-08T03:35:55.774Z,5.77
2019-02-08T03:38:26.118Z,6.73
2019-02-08T03:40:55.353Z,6.40
2019-02-08T03:43:24.731Z,8.03
2019-02-08T03:45:54.458Z,5.60
2019-02-08T03:48:23.826Z,6.33
2019-02-08T03:50:52.967Z,6.00
2019-02-08T03:53:22.551Z,6.70
2019-02-08T03:55:58.013Z,8.63
2019-02-08T03:58:23.350Z,6.67
2019-02-08T04:00:57.375Z,6.50
2019-02-08T04:03:26.631Z,7.50
2019-02-08T04:05:55.948Z,6.00
2019-02-08T04:08:25.392Z,5.40
2019-02-08T04:10:54.818Z,5.87
2019-02-08T04:13:24.603Z,5.53
2019-02-08T04:15:54.666Z,6.23
2019-02-08T04:18:24.028Z,5.17
2019-02-08T04:20:53.279Z,5.40
2019-02-08T04:23:22.633Z,4.93
2019-02-08T04:25:51.978Z,7.37
2019-02-08T04:28:21.267Z,5.73
2019-02-08T04:30:50.679Z,4.60
2019-02-08T04:33:20.163Z,4.10
2019-02-08T04:35:49.921Z,4.73
2019-02-08T04:38:19.681Z,5.20
2019-02-08T04:40:48.857Z,4.43
2019-02-08T04:43:18.146Z,4.23
2019-02-08T04:45:47.427Z,5.33
2019-02-08T04:48:16.809Z,4.00
2019-02-08T04:50:46.203Z,3.77
2019-02-08T04:53:15.489Z,4.30
2019-02-08T04:55:44.858Z,4.13
2019-02-08T04:58:14.161Z,4.37
2019-02-08T05:00:44.067Z,4.10
2019-02-08T05:03:13.239Z,4.13
2019-02-08T05:05:43.431Z,3.60
2019-02-08T05:08:13.062Z,4.13
2019-02-08T05:10:42.375Z,4.43
2019-02-08T05:13:12.107Z,4.20
2019-02-08T05:15:41.502Z,4.53
2019-02-08T05:18:10.826Z,4.33
2019-02-08T05:20:40.084Z,4.50
2019-02-08T05:23:09.338Z,3.97
2019-02-08T05:25:38.556Z,4.27
2019-02-08T05:28:07.978Z,3.63
2019-02-08T05:30:37.408Z,4.50
2019-02-08T05:33:06.907Z,4.63
2019-02-08T05:35:36.521Z,4.17
2019-02-08T05:38:06.157Z,4.23
2019-02-08T05:40:35.572Z,4.97
2019-02-08T05:43:05.570Z,3.77
2019-02-08T05:45:34.876Z,3.90
2019-02-08T05:48:04.201Z,4.67
2019-02-08T05:50:33.487Z,4.40
2019-02-08T05:53:02.863Z,3.83
2019-02-08T05:55:32.916Z,3.73
2019-02-08T05:58:02.430Z,4.73
2019-02-08T06:00:43.350Z,5.43
2019-02-08T06:03:12.586Z,4.20
2019-02-08T06:05:42.282Z,4.27
2019-02-08T06:08:11.577Z,4.77
2019-02-08T06:10:40.834Z,4.73
2019-02-08T06:13:10.449Z,4.50
2019-02-08T06:15:40.196Z,4.73
2019-02-08T06:18:11.030Z,5.80
2019-02-08T06:20:41.425Z,5.43
2019-02-08T06:23:11.146Z,4.50
2019-02-08T06:25:40.400Z,5.87
2019-02-08T06:28:09.743Z,4.83
2019-02-08T06:30:40.010Z,6.63
2019-02-08T06:33:09.447Z,6.60
2019-02-08T06:35:38.764Z,6.27
2019-02-08T06:38:08.655Z,6.97
2019-02-08T06:40:41.205Z,7.40
2019-02-08T06:43:10.978Z,5.80
2019-02-08T06:45:40.376Z,6.20
2019-02-08T06:48:11.163Z,6.13
2019-02-08T06:50:41.000Z,7.83
2019-02-08T06:53:10.313Z,7.43
2019-02-08T06:55:39.632Z,8.23
2019-02-08T06:58:40.304Z,9.93
2019-02-08T07:01:31.484Z,6.90
2019-02-08T07:04:18.608Z,8.97
2019-02-08T07:06:57.189Z,8.03
2019-02-08T07:09:44.741Z,8.43
2019-02-08T07:12:30.766Z,9.40
2019-02-08T07:15:15.013Z,7.73
2019-02-08T07:17:55.404Z,8.03
2019-02-08T07:21:04.983Z,7.30
2019-02-08T07:23:47.549Z,8.50
2019-02-08T07:26:34.914Z,9.33
2019-02-08T07:29:26.815Z,9.20
2019-02-08T07:32:23.112Z,7.10
2019-02-08T07:35:18.152Z,8.63
2019-02-08T07:38:21.463Z,7.67
2019-02-08T07:41:24.115Z,6.63
2019-02-08T07:44:15.495Z,6.67
2019-02-08T07:47:23.345Z,8.30
2019-02-08T07:50:35.081Z,8.77
2019-02-08T07:53:19.059Z,8.47
2019-02-08T07:55:55.257Z,7.20
2019-02-08T07:58:32.176Z,7.93
2019-02-08T08:01:23.819Z,7.83
2019-02-08T08:04:05.309Z,7.77
2019-02-08T08:06:48.030Z,8.40
2019-02-08T08:09:46.192Z,7.53
2019-02-08T08:12:47.613Z,5.67
2019-02-08T08:15:52.175Z,8.40
2019-02-08T08:18:55.849Z,7.37
2019-02-08T08:21:52.400Z,7.83
2019-02-08T08:24:43.819Z,7.40
2019-02-08T08:27:47.236Z,7.27
2019-02-08T08:31:05.415Z,6.50
2019-02-08T08:34:18.781Z,6.13
2019-02-08T08:41:31.651Z,5.50
2019-02-08T08:44:44.037Z,6.27
2019-02-08T08:47:41.340Z,5.00
2019-02-08T08:50:54.804Z,7.03
2019-02-08T08:54:06.482Z,6.07
2019-02-08T08:57:03.758Z,4.47
2019-02-08T09:00:15.141Z,6.20
2019-02-08T09:03:24.145Z,5.80
2019-02-08T09:06:44.528Z,4.53
2019-02-08T09:10:06.770Z,3.50
2019-02-08T09:13:31.271Z,4.70
2019-02-08T09:16:33.934Z,4.40
2019-02-08T09:19:46.851Z,3.50
2019-02-08T09:22:36.892Z,4.00
2019-02-08T09:25:29.530Z,3.70
2019-02-08T09:28:49.191Z,4.03
2019-02-08T09:32:14.051Z,4.27
2019-02-08T09:35:45.795Z,3.53
2019-02-08T09:38:44.983Z,4.97
2019-02-08T09:41:50.019Z,3.67
2019-02-08T09:44:54.339Z,3.37
2019-02-08T09:48:06.665Z,4.07
2019-02-08T09:51:23.126Z,3.90
2019-02-08T09:54:36.638Z,3.30
2019-02-08T09:57:34.657Z,3.50
2019-02-08T10:00:29.797Z,2.80
2019-02-08T10:03:33.744Z,2.83
2019-02-08T10:06:49.577Z,4.50
2019-02-08T10:10:07.515Z,3.40
2019-02-08T10:13:34.257Z,2.87
2019-02-08T10:16:43.446Z,3.70
2019-02-08T10:19:53.666Z,2.90
2019-02-08T10:23:17.273Z,2.97
2019-02-08T10:26:30.897Z,2.43
2019-02-08T10:33:44.698Z,4.10
2019-02-08T10:37:13.565Z,2.93
2019-02-08T10:40:07.797Z,2.83
2019-02-08T10:43:21.107Z,3.30
2019-02-08T10:46:26.372Z,2.93
2019-02-08T10:49:52.227Z,3.43
2019-02-08T10:52:54.388Z,3.10
2019-02-08T10:56:01.233Z,3.17
2019-02-08T10:59:18.450Z,2.97
2019-02-08T11:02:33.775Z,3.17
2019-02-08T11:05:53.122Z,2.90
2019-02-08T11:09:11.754Z,3.10
2019-02-08T11:12:18.070Z,3.30
2019-02-08T11:15:18.830Z,2.90
2019-02-08T11:18:23.210Z,2.80
2019-02-08T11:20:53.870Z,2.17
2019-02-08T11:23:23.297Z,2.70
2019-02-08T11:25:57.730Z,1.93
2019-02-08T11:28:27.757Z,2.60
2019-02-08T11:30:57.147Z,2.70
2019-02-08T11:33:31.425Z,2.30
2019-02-08T11:36:01.086Z,2.27
2019-02-08T11:38:31.143Z,2.83
2019-02-08T11:41:00.565Z,2.30
2019-02-08T11:43:40.442Z,2.07
2019-02-08T11:46:09.835Z,3.20
2019-02-08T11:48:40.738Z,2.40
2019-02-08T11:51:10.113Z,2.80
2019-02-08T11:53:39.338Z,2.50
2019-02-08T11:56:08.821Z,2.00
2019-02-08T11:58:38.074Z,2.20
2019-02-08T12:01:07.401Z,2.07
2019-02-08T12:03:36.841Z,1.87
2019-02-08T12:06:07.059Z,3.73
2019-02-08T12:08:36.397Z,3.23
2019-02-08T12:11:05.803Z,2.93
2019-02-08T12:13:36.082Z,2.63
2019-02-08T12:16:05.410Z,2.33
2019-02-08T12:18:34.692Z,2.40
2019-02-08T12:21:03.896Z,2.60
2019-02-08T12:23:33.279Z,2.47
2019-02-08T12:26:02.941Z,2.67
2019-02-08T12:28:32.189Z,2.37
2019-02-08T12:31:01.430Z,2.50
2019-02-08T12:33:30.634Z,3.57
2019-02-08T12:35:59.882Z,2.70
2019-02-08T12:38:29.184Z,2.80
2019-02-08T12:40:58.537Z,2.57
2019-02-08T12:43:27.794Z,2.07
2019-02-08T12:45:57.135Z,2.33
2019-02-08T12:48:26.482Z,2.87
2019-02-08T12:50:55.896Z,3.57
2019-02-08T12:53:28.442Z,2.70
2019-02-08T12:55:57.662Z,2.60
2019-02-08T12:58:26.880Z,2.23
2019-02-08T13:00:56.171Z,2.27
2019-02-08T13:03:25.645Z,1.87
2019-02-08T13:05:54.965Z,4.20
2019-02-08T13:08:24.258Z,2.77
2019-02-08T13:10:53.566Z,2.07
2019-02-08T13:13:28.887Z,3.10
2019-02-08T13:15:58.227Z,5.10
2019-02-08T13:18:27.518Z,2.40
2019-02-08T13:20:56.906Z,2.87
2019-02-08T13:23:27.324Z,4.53
2019-02-08T13:25:56.718Z,2.80
2019-02-08T13:28:25.878Z,2.87
2019-02-08T13:30:55.088Z,3.30
2019-02-08T13:33:24.493Z,2.43
2019-02-08T13:35:53.700Z,2.73
2019-02-08T13:38:23.047Z,2.30
2019-02-08T13:40:52.327Z,2.30
2019-02-08T13:43:21.756Z,4.30
2019-02-08T13:45:50.993Z,2.77
2019-02-08T13:48:20.207Z,10.07
2019-02-08T13:50:49.873Z,2.33
2019-02-08T13:53:25.139Z,3.10
2019-02-08T13:55:57.948Z,3.20
2019-02-08T13:58:31.180Z,2.00
2019-02-08T14:01:02.260Z,2.20
2019-02-08T14:03:41.125Z,2.00
2019-02-08T14:06:11.615Z,2.00
2019-02-08T14:08:42.597Z,2.50
2019-02-08T14:11:11.999Z,2.40
2019-02-08T14:13:41.441Z,1.90
2019-02-08T14:16:11.051Z,2.30
2019-02-08T14:18:41.601Z,3.50
2019-02-08T14:21:11.045Z,2.23
2019-02-08T14:23:40.601Z,2.20
2019-02-08T14:26:09.860Z,2.27
2019-02-08T14:28:39.237Z,2.43
2019-02-08T14:31:08.521Z,2.53
2019-02-08T14:33:44.312Z,3.07
2019-02-08T14:36:14.478Z,1.90
2019-02-08T14:38:43.774Z,1.90
2019-02-08T14:41:13.479Z,2.17
2019-02-08T14:43:42.979Z,2.67
2019-02-08T14:46:13.400Z,2.60
2019-02-08T14:48:44.207Z,2.50
2019-02-08T14:51:14.037Z,2.67
2019-02-08T14:53:45.960Z,1.97
2019-02-08T14:56:15.543Z,1.70
2019-02-08T14:58:45.734Z,1.70
2019-02-08T15:01:17.327Z,2.00
2019-02-08T15:03:47.792Z,1.43
2019-02-08T15:06:18.208Z,2.10
2019-02-08T15:08:48.390Z,1.77
2019-02-08T15:11:17.747Z,2.40
2019-02-08T15:13:47.428Z,2.17
2019-02-08T15:16:17.491Z,3.20
2019-02-08T15:18:48.435Z,1.97
2019-02-08T15:21:19.973Z,1.83
2019-02-08T15:23:50.590Z,2.20
2019-02-08T15:26:20.894Z,2.87
2019-02-08T15:28:50.280Z,2.90
2019-02-08T15:31:19.752Z,2.57
2019-02-08T15:33:49.192Z,1.93
2019-02-08T15:36:18.484Z,2.23
2019-02-08T15:38:49.912Z,2.93
2019-02-08T15:41:19.179Z,2.37
2019-02-08T15:43:49.878Z,2.23
2019-02-08T15:46:19.338Z,2.63
2019-02-08T15:48:49.545Z,2.53
2019-02-08T15:51:19.143Z,1.77
2019-02-08T15:53:48.585Z,1.73
2019-02-08T15:56:18.417Z,2.20
2019-02-08T15:58:48.276Z,2.50
2019-02-08T16:01:19.147Z,1.90
2019-02-08T16:03:49.352Z,2.37
2019-02-08T16:06:19.955Z,1.77
2019-02-08T16:08:49.572Z,2.40
2019-02-08T16:11:19.146Z,1.40
2019-02-08T16:13:48.881Z,1.90
2019-02-08T16:16:18.541Z,2.30
2019-02-08T16:18:47.974Z,1.90
2019-02-08T16:21:17.604Z,2.90
2019-02-08T16:23:47.401Z,2.50
2019-02-08T16:26:16.950Z,2.23
2019-02-08T16:33:49.019Z,1.77
2019-02-08T16:36:18.408Z,2.50
2019-02-08T16:38:48.088Z,1.97
2019-02-08T16:41:17.747Z,2.03
2019-02-08T16:43:47.472Z,2.30
2019-02-08T16:46:17.107Z,2.20
2019-02-08T16:48:46.659Z,2.40
2019-02-08T16:51:16.212Z,2.60
2019-02-08T16:53:53.072Z,2.40
2019-02-08T16:56:17.300Z,2.60
2019-02-08T16:58:48.172Z,2.47
2019-02-08T17:01:17.894Z,2.83
2019-02-08T17:03:47.556Z,3.00
2019-02-08T17:06:17.252Z,7.63
2019-02-08T17:08:46.927Z,3.20
2019-02-08T17:11:16.721Z,2.40
2019-02-08T17:13:46.557Z,4.83
2019-02-08T17:16:16.350Z,2.53
2019-02-08T17:18:45.861Z,2.73
2019-02-08T17:21:15.397Z,1.70
2019-02-08T17:23:44.945Z,2.00
2019-02-08T17:26:14.553Z,2.30
2019-02-08T17:28:44.168Z,2.33
2019-02-08T17:31:13.817Z,2.20
2019-02-08T17:33:43.492Z,2.03
2019-02-08T17:36:13.174Z,3.73
2019-02-08T17:38:43.597Z,1.70
2019-02-08T17:41:13.332Z,2.40
2019-02-08T17:43:42.975Z,3.20
2019-02-08T17:46:12.740Z,2.93
2019-02-08T17:48:42.257Z,2.10
2019-02-08T17:51:11.819Z,3.13
2019-02-08T17:53:41.497Z,2.70
2019-02-08T17:56:11.427Z,2.40
2019-02-08T17:58:41.098Z,2.53
2019-02-08T18:01:12.050Z,3.00
2019-02-08T18:03:41.957Z,2.77
2019-02-08T18:06:12.537Z,2.80
2019-02-08T18:08:42.747Z,3.40
2019-02-08T18:11:12.303Z,2.57
2019-02-08T18:13:42.018Z,2.50
2019-02-08T18:16:11.638Z,1.90
2019-02-08T18:18:41.267Z,2.77
2019-02-08T18:21:12.180Z,3.37
2019-02-08T18:23:43.339Z,2.73
2019-02-08T18:26:13.344Z,2.53
2019-02-08T18:28:43.117Z,3.10
2019-02-08T18:31:12.777Z,2.43
2019-02-08T18:33:42.558Z,2.63
2019-02-08T18:36:12.072Z,2.20
2019-02-08T18:38:42.576Z,4.00
2019-02-08T18:41:12.228Z,3.23
2019-02-08T18:43:41.907Z,2.13
2019-02-08T18:46:11.971Z,2.17
2019-02-08T18:48:43.104Z,3.47
2019-02-08T18:51:12.797Z,2.70
2019-02-08T18:53:42.485Z,3.00
2019-02-08T18:56:12.123Z,2.47
2019-02-08T18:58:41.839Z,3.43
2019-02-08T19:01:11.802Z,3.00
2019-02-08T19:03:41.834Z,2.67
2019-02-08T19:06:11.525Z,2.83
2019-02-08T19:08:41.945Z,3.07
2019-02-08T19:11:11.755Z,2.13
2019-02-08T19:13:41.284Z,2.60
2019-02-08T19:16:11.043Z,2.00
2019-02-08T19:18:40.716Z,2.40
2019-02-08T19:21:11.349Z,2.23
2019-02-08T19:23:41.506Z,3.53
2019-02-08T19:26:11.282Z,3.70
2019-02-08T19:28:40.903Z,2.80
2019-02-08T19:31:10.682Z,2.17
2019-02-08T19:33:40.455Z,3.47
2019-02-08T19:36:10.096Z,3.07
2019-02-08T19:38:39.739Z,2.70
2019-02-08T19:41:12.036Z,2.77
2019-02-08T19:43:41.739Z,3.43
2019-02-08T19:46:11.923Z,3.10
2019-02-08T19:48:41.574Z,3.00
2019-02-08T19:51:12.271Z,2.90
2019-02-08T19:53:42.414Z,2.47
2019-02-08T19:56:12.197Z,3.03
2019-02-08T19:58:42.092Z,2.63
2019-02-08T20:01:12.111Z,2.10
2019-02-08T20:03:41.814Z,2.20
2019-02-08T20:06:12.172Z,3.10
2019-02-08T20:08:41.772Z,2.20
2019-02-08T20:11:11.912Z,2.90
2019-02-08T20:13:42.271Z,3.63
2019-02-08T20:16:11.939Z,2.47
2019-02-08T20:18:41.466Z,2.43
2019-02-08T20:21:11.185Z,2.57
2019-02-08T20:23:40.908Z,2.43
2019-02-08T20:26:10.587Z,2.67
2019-02-08T20:28:42.661Z,2.40
2019-02-08T20:31:12.498Z,2.70
2019-02-08T20:33:42.555Z,2.33
2019-02-08T20:36:12.249Z,3.20
2019-02-08T20:38:41.891Z,2.10
2019-02-08T20:41:11.651Z,3.03
2019-02-08T20:43:41.483Z,2.60
2019-02-08T20:46:11.358Z,2.67
2019-02-08T20:48:41.133Z,3.30
2019-02-08T20:51:11.318Z,2.37
2019-02-08T20:53:41.211Z,2.63
2019-02-08T20:56:10.925Z,2.57
2019-02-08T20:58:40.608Z,2.90
2019-02-08T21:01:10.575Z,3.07
2019-02-08T21:03:40.428Z,2.60
2019-02-08T21:06:10.386Z,2.33
2019-02-08T21:08:40.136Z,2.97
2019-02-08T21:11:10.804Z,2.13
2019-02-08T21:13:40.555Z,2.00
2019-02-08T21:16:10.473Z,2.67
2019-02-08T21:18:40.086Z,2.27
2019-02-08T21:21:09.948Z,3.50
2019-02-08T21:23:39.572Z,3.07
2019-02-08T21:26:10.824Z,2.73
2019-02-08T21:28:41.464Z,2.60
2019-02-08T21:31:11.266Z,3.37
2019-02-08T21:33:40.955Z,2.70
2019-02-08T21:36:10.775Z,2.37
2019-02-08T21:38:40.418Z,2.17
2019-02-08T21:41:10.189Z,2.43
2019-02-08T21:43:39.851Z,2.60
2019-02-08T21:46:10.083Z,1.80
2019-02-08T21:48:39.814Z,2.13
2019-02-08T21:51:09.436Z,3.03
2019-02-08T21:53:38.971Z,2.83
2019-02-08T21:56:09.127Z,2.23
2019-02-08T21:58:38.900Z,2.60
2019-02-08T22:01:08.901Z,2.40
2019-02-08T22:03:38.510Z,2.07
2019-02-08T22:06:10.320Z,2.20
2019-02-08T22:08:40.463Z,2.40
2019-02-08T22:11:10.028Z,2.30
2019-02-08T22:13:39.914Z,3.00
2019-02-08T22:16:10.018Z,2.40
2019-02-08T22:18:39.668Z,2.50
2019-02-08T22:21:09.240Z,2.50
2019-02-08T22:23:38.638Z,2.63
2019-02-08T22:26:09.959Z,2.83
2019-02-08T22:28:39.512Z,2.70
2019-02-08T22:31:08.806Z,2.03
2019-02-08T22:33:38.150Z,2.23
2019-02-08T22:36:08.091Z,1.47
2019-02-08T22:38:38.054Z,2.17
2019-02-08T22:41:07.718Z,2.60
2019-02-08T22:43:37.322Z,3.00
2019-02-08T22:49:42.024Z,3.40
2019-02-08T22:52:25.242Z,1.50
2019-02-08T22:55:19.272Z,2.30
2019-02-08T22:58:20.978Z,2.00
2019-02-08T23:01:32.432Z,3.17
2019-02-08T23:04:06.756Z,2.50
2019-02-08T23:06:44.818Z,2.77
2019-02-08T23:09:23.680Z,3.47
2019-02-08T23:11:53.740Z,2.37
2019-02-08T23:14:24.280Z,2.73
2019-02-08T23:16:54.071Z,2.63
2019-02-08T23:19:23.812Z,3.43
2019-02-08T23:21:54.958Z,3.27
2019-02-08T23:24:24.825Z,2.17
2019-02-08T23:26:54.803Z,4.13
2019-02-08T23:29:30.163Z,2.40
2019-02-08T23:31:58.311Z,2.73
2019-02-08T23:34:27.991Z,3.37
2019-02-08T23:36:58.414Z,3.03
2019-02-08T23:39:27.897Z,3.13
2019-02-08T23:41:57.671Z,2.87
2019-02-08T23:44:29.322Z,3.70
2019-02-08T23:46:58.665Z,3.27
2019-02-08T23:49:28.577Z,2.87
2019-02-08T23:51:58.577Z,3.43
2019-02-08T23:54:27.893Z,2.40
2019-02-08T23:56:57.540Z,3.40
2019-02-08T23:59:28.352Z,4.10
